Time;durP1;ratioP1;P1;durP2;ratioP2;P2;SDS_P1;SDS_P2;PMS_P1;PMS_P2;Temp;Humidity;BMP_temperature;BMP_pressure;BME280_temperature;BME280_humidity;BME280_pressure;Samples;Min_cycle;Max_cycle;Signal;HPM_P1;HPM_P2
2021/04/13 00:02:39;;;;;;;5.97;2.63;;;;;;;0.91;89.74;102736.66;4998748;28;20046;-79
2021/04/13 00:05:12;;;;;;;4.50;2.25;;;;;;;0.97;89.70;102746.03;5043797;28;20045;-77
2021/04/13 00:07:41;;;;;;;7.75;2.47;;;;;;;0.87;89.87;102735.06;5023471;28;20129;-77
2021/04/13 00:10:12;;;;;;;3.30;2.05;;;;;;;0.99;89.42;102730.47;4992022;28;20137;-78
2021/04/13 00:12:38;;;;;;;6.57;2.80;;;;;;;0.83;90.12;102728.25;4998450;28;20088;-79
2021/04/13 00:15:14;;;;;;;7.70;2.72;;;;;;;0.71;90.55;102728.53;5040045;28;20052;-75
2021/04/13 00:17:43;;;;;;;10.27;2.47;;;;;;;0.53;90.97;102725.47;5011971;28;20058;-76
2021/04/13 00:20:26;;;;;;;7.70;3.03;;;;;;;0.47;91.59;102729.91;5023277;28;20069;-79
2021/04/13 00:22:52;;;;;;;;;;;;;;;0.26;92.07;102732.03;5007336;28;20112;-80
2021/04/13 00:25:44;;;;;;;7.60;2.70;;;;;;;0.17;92.71;102716.72;4974749;28;19921;-77
2021/04/13 00:28:09;;;;;;;6.35;2.45;;;;;;;0.19;92.71;102720.16;5005650;28;20097;-77
2021/04/13 00:30:48;;;;;;;9.90;2.80;;;;;;;0.04;92.77;102728.19;4989998;28;20531;-77
2021/04/13 00:33:21;;;;;;;7.38;2.78;;;;;;;0.14;92.39;102727.13;5008467;28;20427;-78
2021/04/13 00:36:07;;;;;;;5.40;2.85;;;;;;;0.02;92.96;102727.34;4995309;28;20042;-75
2021/04/13 00:38:45;;;;;;;6.30;2.72;;;;;;;-0.01;93.34;102728.28;5016623;28;20037;-74
2021/04/13 00:41:23;;;;;;;3.92;2.55;;;;;;;0.23;93.03;102726.97;4993497;28;20053;-77
2021/04/13 00:43:57;;;;;;;9.30;3.40;;;;;;;0.18;92.65;102724.44;4977359;28;20061;-78
2021/04/13 00:46:28;;;;;;;9.30;3.25;;;;;;;0.34;92.41;102724.13;4976551;28;20774;-77
2021/04/13 00:49:00;;;;;;;8.65;3.13;;;;;;;0.47;92.39;102725.59;4992128;28;20043;-77
2021/04/13 00:51:44;;;;;;;8.90;2.67;;;;;;;0.54;91.51;102728.88;5019502;28;20724;-77
2021/04/13 00:54:18;;;;;;;8.35;2.90;;;;;;;0.46;91.62;102710.97;5007034;28;20041;-77
2021/04/13 00:56:43;;;;;;;6.55;2.83;;;;;;;0.48;91.45;102716.97;4966959;28;20039;-77
2021/04/13 00:59:16;;;;;;;6.15;3.28;;;;;;;0.47;91.31;102724.72;4976660;28;20180;-77
2021/04/13 01:01:50;;;;;;;10.45;3.00;;;;;;;0.34;91.45;102735.34;5010758;28;20034;-78
2021/04/13 01:04:19;;;;;;;11.65;3.33;;;;;;;0.42;91.41;102719.69;5012740;28;20038;-77
2021/04/13 01:06:44;;;;;;;7.90;3.75;;;;;;;0.42;91.38;102724.84;4992476;28;20426;-76
2021/04/13 01:09:25;;;;;;;12.88;3.10;;;;;;;0.51;91.39;102726.34;5009507;28;20125;-78
2021/04/13 01:12:08;;;;;;;5.70;3.17;;;;;;;0.45;91.74;102727.34;5009889;28;21316;-79
2021/04/13 01:14:34;;;;;;;7.22;3.50;;;;;;;0.29;91.88;102721.66;4996232;28;20101;-78
2021/04/13 01:17:02;;;;;;;9.63;3.28;;;;;;;0.27;92.13;102726.00;5013886;28;20569;-78
2021/04/13 01:19:57;;;;;;;10.00;3.55;;;;;;;0.11;92.98;102722.88;5017633;28;20117;-78
2021/04/13 01:22:40;;;;;;;4.75;3.17;;;;;;;0.17;93.16;102721.91;4992893;28;20061;-76
2021/04/13 01:25:18;;;;;;;7.05;3.58;;;;;;;0.35;92.23;102713.78;4993241;28;20072;-77
2021/04/13 01:27:51;;;;;;;12.40;3.67;;;;;;;0.49;91.74;102713.50;4992171;28;20046;-77
2021/04/13 01:30:18;;;;;;;;;;;;;;;0.42;91.42;102705.94;4987184;28;20045;-76
2021/04/13 01:32:44;;;;;;;8.02;3.20;;;;;;;0.46;91.97;102712.72;5009217;28;19921;-75
2021/04/13 01:35:14;;;;;;;11.68;3.50;;;;;;;0.45;91.88;102711.84;5004270;28;20088;-75
2021/04/13 01:43:22;;;;;;;4.40;3.25;;;;;;;-0.05;93.28;102722.31;5008856;28;20184;-75
2021/04/13 01:45:48;;;;;;;9.25;3.55;;;;;;;-0.17;93.69;102726.84;5009920;28;20108;-78
2021/04/13 01:48:16;;;;;;;10.10;4.03;;;;;;;-0.05;93.68;102740.38;4989500;28;20045;-78
2021/04/13 01:50:44;;;;;;;9.45;3.83;;;;;;;-0.08;94.10;102732.69;5039190;28;20038;-76
2021/04/13 01:53:21;;;;;;;6.85;3.78;;;;;;;0.12;93.92;102724.56;4993722;28;20059;-77
2021/04/13 01:56:00;;;;;;;8.73;4.15;;;;;;;0.25;93.41;102732.09;5010255;28;20573;-79
2021/04/13 01:58:49;;;;;;;8.27;3.80;;;;;;;0.14;92.91;102732.28;5005855;28;20133;-77
2021/04/13 02:01:24;;;;;;;7.82;4.05;;;;;;;0.02;93.37;102723.06;5042819;28;20045;-77
2021/04/13 02:04:03;;;;;;;10.52;3.47;;;;;;;0.08;93.62;102728.09;5016672;28;20049;-75
2021/04/13 02:06:36;;;;;;;13.57;4.05;;;;;;;-0.05;94.18;102730.06;5000326;28;20419;-77
2021/04/13 02:09:17;;;;;;;;;;;;;;;-0.04;94.44;102730.91;5010665;28;20129;-75
2021/04/13 02:11:43;;;;;;;9.38;3.95;;;;;;;-0.03;94.40;102730.03;4993713;28;19937;-77
2021/04/13 02:14:19;;;;;;;10.30;4.30;;;;;;;-0.13;94.67;102731.06;5041889;28;20120;-76
2021/04/13 02:16:53;;;;;;;8.50;3.58;;;;;;;-0.04;94.54;102731.78;5009684;28;20038;-76
2021/04/13 02:19:20;;;;;;;12.77;4.00;;;;;;;-0.10;94.54;102729.28;4988997;28;20191;-76
2021/04/13 02:21:51;;;;;;;12.27;4.13;;;;;;;0.04;94.46;102729.06;5023096;28;20049;-79
2021/04/13 02:24:20;;;;;;;10.05;3.55;;;;;;;0.01;94.14;102728.25;5024756;28;20048;-77
2021/04/13 02:26:49;;;;;;;7.50;3.33;;;;;;;0.11;94.07;102727.19;5042307;28;20832;-78
2021/04/13 02:29:18;;;;;;;8.82;3.53;;;;;;;0.02;94.15;102723.06;5005037;28;20084;-75
2021/04/13 02:31:52;;;;;;;9.18;3.45;;;;;;;0.11;93.71;102716.88;4993216;28;20041;-78
2021/04/13 02:34:39;;;;;;;6.35;3.72;;;;;;;0.11;93.75;102719.44;5000566;28;20054;-77
2021/04/13 02:37:14;;;;;;;7.75;3.47;;;;;;;-0.08;93.95;102718.94;5004603;28;20046;-75
2021/04/13 02:40:18;;;;;;;9.75;3.85;;;;;;;-0.06;94.62;102722.34;4969911;28;20500;-75
2021/04/13 02:42:45;;;;;;;6.22;3.42;;;;;;;-0.10;94.45;102720.72;4987216;28;20045;-78
2021/04/13 02:45:42;;;;;;;7.55;3.42;;;;;;;-0.32;94.65;102707.34;4988279;28;20145;-77
2021/04/13 02:48:17;;;;;;;7.95;3.60;;;;;;;-0.33;95.47;102714.25;4969436;28;20556;-79
2021/04/13 02:50:46;;;;;;;11.65;3.80;;;;;;;-0.33;95.64;102727.16;5004434;28;20038;-79
2021/04/13 02:53:15;;;;;;;9.43;3.25;;;;;;;-0.37;94.92;102732.41;4989259;28;20050;-80
2021/04/13 02:55:50;;;;;;;11.05;3.25;;;;;;;-0.42;95.23;102729.88;4989043;28;20038;-77
2021/04/13 02:58:18;;;;;;;10.65;3.33;;;;;;;-0.38;95.40;102733.25;4988053;28;20046;-78
2021/04/13 03:00:46;;;;;;;8.30;3.05;;;;;;;-0.55;95.52;102734.41;5005284;28;20038;-77
2021/04/13 03:03:27;;;;;;;13.70;3.97;;;;;;;-0.58;96.12;102731.88;4994053;28;20050;-78
2021/04/13 03:05:55;;;;;;;11.48;4.78;;;;;;;-0.51;95.93;102733.50;5020976;28;20046;-78
2021/04/13 03:08:21;;;;;;;7.38;3.45;;;;;;;-0.41;95.64;102735.03;4966303;28;20049;-78
2021/04/13 03:10:53;;;;;;;5.57;3.28;;;;;;;-0.52;95.06;102738.66;5007932;28;20052;-77
2021/04/13 03:13:21;;;;;;;;;;;;;;;-0.29;96.32;102736.53;4990373;28;20834;-77
2021/04/13 03:15:55;;;;;;;10.82;3.40;;;;;;;-0.02;95.71;102732.59;5023602;28;20042;-77
2021/04/13 03:18:25;;;;;;;11.60;4.00;;;;;;;-0.02;95.75;102735.19;5026092;28;20045;-78
2021/04/13 03:20:54;;;;;;;7.30;3.55;;;;;;;0.00;95.33;102740.31;5027297;28;20088;-76
2021/04/13 03:23:23;;;;;;;9.20;3.65;;;;;;;0.06;95.02;102736.75;5022776;28;20046;-76
2021/04/13 03:25:55;;;;;;;9.88;3.40;;;;;;;0.05;94.78;102742.78;5046363;28;20042;-77
2021/04/13 03:28:25;;;;;;;11.70;3.45;;;;;;;-0.03;94.95;102742.94;4984037;28;20040;-76
2021/04/13 03:30:52;;;;;;;8.35;3.53;;;;;;;0.08;95.17;102730.69;5009014;28;20455;-77
2021/04/13 03:33:29;;;;;;;10.57;3.78;;;;;;;0.26;93.86;102720.88;4999027;28;20097;-78
2021/04/13 03:36:25;;;;;;;10.95;3.80;;;;;;;0.22;93.53;102732.97;4997506;28;20450;-80
2021/04/13 03:39:12;;;;;;;6.85;3.40;;;;;;;0.19;93.57;102730.47;4993198;28;20180;-75
2021/04/13 03:41:44;;;;;;;11.55;3.83;;;;;;;0.22;93.67;102738.16;4991559;28;20030;-78
2021/04/13 03:44:14;;;;;;;9.77;3.78;;;;;;;0.11;93.84;102740.09;5012394;28;20046;-78
2021/04/13 03:46:40;;;;;;;13.88;4.50;;;;;;;0.09;94.34;102742.69;5006009;28;20049;-78
2021/04/13 03:49:12;;;;;;;8.40;3.97;;;;;;;0.07;94.25;102753.94;5010133;28;20061;-76
2021/04/13 03:51:45;;;;;;;7.90;3.90;;;;;;;0.01;94.89;102749.75;5023060;28;20456;-77
2021/04/13 03:54:20;;;;;;;12.10;4.25;;;;;;;0.08;94.50;102750.50;5007210;28;20038;-76
2021/04/13 03:56:46;;;;;;;10.43;4.38;;;;;;;-0.07;94.78;102757.63;4992171;28;20069;-77
2021/04/13 03:59:25;;;;;;;10.85;4.28;;;;;;;-0.04;95.36;102755.00;5038642;28;20460;-77
2021/04/13 04:01:51;;;;;;;9.43;4.15;;;;;;;-0.08;95.53;102755.06;5003770;28;20042;-76
2021/04/13 04:04:24;;;;;;;8.70;4.10;;;;;;;-0.04;95.23;102749.84;5009121;28;20042;-79
2021/04/13 04:07:04;;;;;;;15.80;5.05;;;;;;;-0.08;95.68;102753.34;5009340;28;20196;-79
2021/04/13 04:09:29;;;;;;;9.93;4.53;;;;;;;-0.06;94.99;102759.34;5010817;28;20053;-78
2021/04/13 04:11:58;;;;;;;11.20;4.18;;;;;;;-0.28;95.28;102768.34;5010175;28;20049;-79
2021/04/13 04:14:26;;;;;;;11.95;4.20;;;;;;;-0.48;95.76;102766.09;5000325;28;20499;-78
2021/04/13 04:17:14;;;;;;;9.63;3.97;;;;;;;-0.61;95.91;102770.59;5012741;28;20054;-78
2021/04/13 04:19:40;;;;;;;9.20;4.38;;;;;;;-0.55;96.48;102774.78;5022873;28;20049;-77
2021/04/13 04:22:10;;;;;;;7.43;4.10;;;;;;;-0.59;96.93;102766.25;5013985;28;20055;-76
2021/04/13 04:24:42;;;;;;;12.80;3.92;;;;;;;-0.38;96.63;102767.63;5010804;28;20041;-78
2021/04/13 04:27:13;;;;;;;14.60;4.43;;;;;;;-0.26;96.44;102766.59;4993400;28;20052;-75
2021/04/13 04:29:43;;;;;;;14.63;4.35;;;;;;;-0.26;96.52;102771.75;4993827;28;20052;-75
2021/04/13 04:32:29;;;;;;;13.02;4.25;;;;;;;-0.06;95.98;102774.81;4993710;28;20459;-79
2021/04/13 04:34:57;;;;;;;9.13;3.95;;;;;;;-0.06;96.07;102784.28;5003664;28;20044;-76
2021/04/13 04:37:32;;;;;;;6.88;4.03;;;;;;;-0.16;96.20;102780.16;4998094;28;20436;-77
2021/04/13 04:40:18;;;;;;;9.52;3.70;;;;;;;-0.13;96.31;102785.25;5025892;28;20052;-76
2021/04/13 04:43:00;;;;;;;8.90;3.45;;;;;;;0.05;95.93;102773.75;5045824;28;20042;-74
2021/04/13 04:45:43;;;;;;;7.60;4.00;;;;;;;0.18;95.53;102777.81;5034729;28;20046;-77
2021/04/13 04:48:38;;;;;;;12.60;4.13;;;;;;;0.26;95.49;102791.41;4992058;28;20145;-79
2021/04/13 04:51:05;;;;;;;9.23;3.28;;;;;;;0.38;95.14;102795.50;5009984;28;20099;-77
2021/04/13 04:53:32;;;;;;;11.02;4.20;;;;;;;0.25;95.35;102796.63;5012101;28;20042;-76
2021/04/13 04:56:00;;;;;;;9.55;3.65;;;;;;;0.12;95.77;102794.25;5009359;28;20519;-79
2021/04/13 04:58:26;;;;;;;8.48;3.50;;;;;;;0.21;95.81;102795.81;4969951;28;20077;-79
2021/04/13 05:00:53;;;;;;;13.32;3.55;;;;;;;0.27;94.82;102793.13;5021965;28;20045;-77
2021/04/13 05:03:20;;;;;;;10.52;3.67;;;;;;;0.18;95.31;102794.13;4994430;28;20601;-77
2021/04/13 05:05:45;;;;;;;9.52;3.88;;;;;;;0.19;95.40;102795.00;5008374;28;20046;-77
2021/04/13 05:08:11;;;;;;;9.00;3.70;;;;;;;0.32;94.85;102804.22;5024918;28;20044;-78
2021/04/13 05:10:37;;;;;;;16.40;3.70;;;;;;;0.40;94.67;102809.22;5008608;28;20215;-77
2021/04/13 05:13:03;;;;;;;11.68;3.63;;;;;;;0.55;94.85;102805.50;5025073;28;20042;-77
2021/04/13 05:15:28;;;;;;;9.52;3.70;;;;;;;0.65;94.16;102804.41;5009168;28;20045;-77
2021/04/13 05:17:54;;;;;;;17.25;4.47;;;;;;;0.71;93.78;102814.59;4992431;28;20041;-79
2021/04/13 05:20:19;;;;;;;12.00;3.53;;;;;;;0.70;93.49;102815.50;5016702;28;20061;-78
2021/04/13 05:22:45;;;;;;;19.88;4.38;;;;;;;0.76;93.18;102812.78;5006791;28;20148;-77
2021/04/13 05:25:12;;;;;;;12.10;4.80;;;;;;;0.77;93.30;102817.09;5011850;28;20030;-75
2021/04/13 05:27:38;;;;;;;9.57;3.78;;;;;;;0.86;93.18;102831.53;5031056;28;20049;-77
2021/04/13 05:30:07;;;;;;;20.60;4.80;;;;;;;0.85;93.09;102829.84;4993237;28;20709;-77
2021/04/13 05:32:33;;;;;;;14.52;4.18;;;;;;;0.86;93.38;102833.25;5022731;28;20140;-77
2021/04/13 05:35:00;;;;;;;13.10;3.80;;;;;;;0.83;93.61;102838.47;5009404;28;20037;-76
2021/04/13 05:37:28;;;;;;;12.85;3.90;;;;;;;0.93;92.74;102829.66;5023321;28;20128;-78
2021/04/13 05:39:56;;;;;;;12.95;4.10;;;;;;;0.90;92.91;102832.31;5000713;28;20707;-77
2021/04/13 05:42:27;;;;;;;10.55;4.80;;;;;;;0.86;92.83;102838.44;5042219;28;20066;-77
2021/04/13 05:44:57;;;;;;;17.70;5.13;;;;;;;0.92;93.32;102831.41;5009662;28;20045;-79
2021/04/13 05:47:25;;;;;;;13.57;4.55;;;;;;;1.09;93.01;102838.81;5012889;28;20080;-77
2021/04/13 05:49:51;;;;;;;16.83;4.57;;;;;;;1.17;92.49;102833.47;5009646;28;20512;-78
2021/04/13 05:52:17;;;;;;;15.85;4.45;;;;;;;1.18;93.13;102842.91;5025936;28;20045;-78
2021/04/13 05:54:42;;;;;;;9.50;3.55;;;;;;;1.37;92.14;102838.16;5011989;28;20699;-77
2021/04/13 05:57:14;;;;;;;12.90;4.38;;;;;;;1.19;92.96;102836.84;5040590;28;20105;-76
2021/04/13 05:59:41;;;;;;;16.15;4.00;;;;;;;1.04;93.56;102843.22;5046817;28;20034;-79
2021/04/13 06:02:12;;;;;;;14.13;3.90;;;;;;;1.10;93.92;102850.81;5043052;28;20125;-77
2021/04/13 06:04:37;;;;;;;16.52;4.00;;;;;;;1.35;93.16;102855.44;5049358;28;20049;-78
2021/04/13 06:07:03;;;;;;;12.02;3.30;;;;;;;1.48;93.49;102843.09;5038335;28;20104;-77
2021/04/13 06:09:28;;;;;;;11.82;3.38;;;;;;;1.65;91.27;102853.88;5003961;28;20049;-79
2021/04/13 06:11:56;;;;;;;12.95;3.63;;;;;;;1.73;91.65;102851.97;5049199;28;20820;-79
2021/04/13 06:14:23;;;;;;;18.73;3.90;;;;;;;1.72;91.20;102852.84;5037790;28;20050;-77
2021/04/13 06:16:50;;;;;;;13.95;3.42;;;;;;;1.83;91.31;102851.72;5009134;28;20050;-78
2021/04/13 06:19:16;;;;;;;14.85;3.83;;;;;;;1.87;91.43;102858.53;5010383;28;20038;-78
2021/04/13 06:21:42;;;;;;;13.30;3.15;;;;;;;1.95;90.09;102852.25;5019818;28;20092;-77
2021/04/13 06:24:15;;;;;;;9.00;3.22;;;;;;;2.16;89.89;102864.69;5006552;28;20507;-77
2021/04/13 06:26:41;;;;;;;13.55;3.10;;;;;;;2.22;90.16;102857.59;4992719;28;20081;-77
2021/04/13 06:29:06;;;;;;;15.00;3.10;;;;;;;2.43;87.85;102869.16;5007003;28;20873;-77
2021/04/13 06:31:32;;;;;;;11.23;3.20;;;;;;;2.45;87.80;102869.97;5023860;28;20046;-77
2021/04/13 06:33:57;;;;;;;19.42;3.58;;;;;;;2.47;88.94;102878.53;5024121;28;20053;-79
2021/04/13 06:36:26;;;;;;;12.27;3.13;;;;;;;2.40;89.88;102870.97;5008606;28;20048;-78
2021/04/13 06:38:52;;;;;;;10.13;2.70;;;;;;;2.59;88.14;102889.47;4990049;28;20799;-77
2021/04/13 06:41:37;;;;;;;14.10;2.70;;;;;;;2.60;88.84;102884.25;5025406;28;20076;-78
2021/04/13 06:44:10;;;;;;;11.85;2.33;;;;;;;2.63;89.33;102891.06;5040498;28;20129;-75
2021/04/13 06:46:44;;;;;;;13.30;2.95;;;;;;;2.96;88.29;102889.28;4988423;28;20042;-79
2021/04/13 06:49:29;;;;;;;8.20;2.75;;;;;;;3.21;86.68;102891.16;5008612;28;20808;-75
2021/04/13 06:52:29;;;;;;;14.27;3.13;;;;;;;3.28;85.31;102890.06;4998573;28;20053;-78
2021/04/13 06:55:32;;;;;;;9.75;2.25;;;;;;;3.16;86.22;102901.63;4984693;28;20042;-78
2021/04/13 06:58:21;;;;;;;11.95;2.72;;;;;;;3.07;85.88;102900.19;4991484;28;20148;-77
2021/04/13 07:01:09;;;;;;;7.93;1.77;;;;;;;3.20;85.83;102902.41;5005052;28;20042;-78
2021/04/13 07:03:50;;;;;;;12.18;2.53;;;;;;;3.37;85.25;102907.94;4993055;28;20042;-79
2021/04/13 07:07:03;;;;;;;5.32;1.60;;;;;;;3.57;84.73;102906.47;4991356;28;20049;-78
2021/04/13 07:09:37;;;;;;;13.43;1.90;;;;;;;3.59;83.66;102904.69;5000327;28;20129;-77
2021/04/13 07:12:14;;;;;;;12.70;1.77;;;;;;;3.66;83.34;102906.19;4991783;28;20046;-76
2021/04/13 07:15:11;;;;;;;9.30;1.83;;;;;;;3.90;84.07;102918.38;4996348;28;20026;-78
2021/04/13 07:17:43;;;;;;;9.18;2.13;;;;;;;4.18;82.51;102914.88;5004921;28;20760;-78
2021/04/13 07:20:11;;;;;;;7.85;1.50;;;;;;;4.43;80.95;102911.44;4992604;28;20045;-74
2021/04/13 07:22:44;;;;;;;9.18;1.88;;;;;;;4.41;80.43;102908.91;5008291;28;20082;-77
2021/04/13 07:25:19;;;;;;;6.90;1.20;;;;;;;4.34;80.28;102922.16;4989098;28;20726;-77
2021/04/13 07:27:54;;;;;;;5.63;0.85;;;;;;;4.20;80.20;102918.28;5004279;28;20042;-77
2021/04/13 07:30:43;;;;;;;3.80;1.20;;;;;;;4.29;81.61;102924.88;5015194;28;20072;-76
2021/04/13 07:33:13;;;;;;;7.53;1.13;;;;;;;4.44;82.47;102924.34;4990851;28;20053;-77
2021/04/13 07:35:39;;;;;;;8.93;1.77;;;;;;;4.54;81.61;102924.91;4975101;28;20403;-77
2021/04/13 07:38:10;;;;;;;5.82;1.38;;;;;;;4.57;79.94;102927.38;4991089;28;20415;-77
2021/04/13 07:40:39;;;;;;;9.38;1.58;;;;;;;4.56;80.88;102923.09;5020970;28;20034;-76
2021/04/13 07:43:12;;;;;;;6.05;1.50;;;;;;;4.54;80.41;102924.03;5010069;28;20045;-76
2021/04/13 07:45:47;;;;;;;6.72;1.48;;;;;;;4.68;79.89;102927.00;5013682;28;20645;-78
2021/04/13 07:48:19;;;;;;;7.35;1.50;;;;;;;4.80;80.60;102929.19;4996842;28;20045;-79
2021/04/13 07:51:04;;;;;;;7.65;1.52;;;;;;;4.93;80.85;102918.31;5010267;28;20060;-79
2021/04/13 07:53:54;;;;;;;10.80;1.42;;;;;;;5.14;79.13;102921.88;4989579;28;20054;-76
2021/04/13 07:56:40;;;;;;;5.47;1.38;;;;;;;5.11;78.32;102925.44;5005658;28;20030;-76
2021/04/13 07:59:19;;;;;;;6.00;1.38;;;;;;;5.13;76.91;102931.44;5011890;28;20458;-78
2021/04/13 08:01:46;;;;;;;5.85;1.23;;;;;;;4.99;78.10;102923.28;5018857;28;20042;-74
2021/04/13 08:04:17;;;;;;;10.05;1.70;;;;;;;5.06;80.07;102925.59;5010065;28;20053;-76
2021/04/13 08:06:48;;;;;;;8.98;1.20;;;;;;;5.21;77.89;102934.59;5007509;28;20041;-78
2021/04/13 08:09:43;;;;;;;10.27;1.83;;;;;;;5.38;77.28;102936.53;5026837;28;23944;-78
2021/04/13 08:12:31;;;;;;;11.02;1.77;;;;;;;5.60;78.92;102949.59;5000924;28;20601;-77
2021/04/13 08:15:05;;;;;;;13.60;1.90;;;;;;;5.54;76.41;102938.56;4994870;28;20077;-79
2021/04/13 08:17:53;;;;;;;11.95;1.85;;;;;;;5.67;77.21;102942.41;5010100;28;20050;-76
2021/04/13 08:20:35;;;;;;;16.13;2.08;;;;;;;5.77;77.16;102946.31;5009629;28;20045;-77
2021/04/13 08:23:31;;;;;;;17.73;2.75;;;;;;;5.94;74.57;102939.59;4993721;28;20149;-77
2021/04/13 08:26:10;;;;;;;16.90;2.30;;;;;;;5.93;75.52;102943.09;5012361;28;20094;-76
2021/04/13 08:28:36;;;;;;;13.57;1.90;;;;;;;6.04;77.29;102939.16;5004401;28;20548;-77
2021/04/13 08:34:01;;;;;;;10.20;1.80;;;;;;;6.19;75.35;102944.66;5006841;28;21185;-75
2021/04/13 08:36:33;;;;;;;17.67;2.13;;;;;;;6.08;76.29;102952.91;5004506;28;20229;-78
2021/04/13 08:39:04;;;;;;;20.02;2.00;;;;;;;6.00;75.64;102948.03;4992458;28;20061;-77
2021/04/13 08:41:44;;;;;;;14.50;1.98;;;;;;;5.95;76.94;102943.88;4999234;28;20042;-77
2021/04/13 08:44:33;;;;;;;16.33;1.95;;;;;;;6.09;74.84;102944.19;5023918;28;20417;-77
2021/04/13 08:47:11;;;;;;;14.45;2.13;;;;;;;6.45;79.32;102938.34;5005967;28;20122;-77
2021/04/13 08:49:48;;;;;;;17.17;2.47;;;;;;;6.47;73.69;102939.13;4992767;28;20132;-76
2021/04/13 08:52:23;;;;;;;17.98;2.65;;;;;;;6.74;75.47;102936.22;5014472;28;20052;-76
2021/04/13 08:54:52;;;;;;;23.13;2.72;;;;;;;6.77;74.14;102933.50;4974020;28;20076;-76
2021/04/13 08:57:18;;;;;;;13.80;2.90;;;;;;;7.18;70.81;102936.00;5008901;28;20050;-78
2021/04/13 08:59:55;;;;;;;17.08;2.83;;;;;;;7.50;73.34;102946.72;5007817;28;20045;-78
2021/04/13 09:02:34;;;;;;;20.70;2.20;;;;;;;7.52;71.51;102935.25;4987801;28;20050;-77
2021/04/13 09:05:19;;;;;;;19.98;2.70;;;;;;;7.52;70.74;102937.03;5024475;28;20054;-77
2021/04/13 09:07:47;;;;;;;12.77;2.35;;;;;;;7.63;69.75;102936.50;5010220;28;20050;-73
2021/04/13 09:10:31;;;;;;;20.20;2.80;;;;;;;7.23;69.45;102944.44;4978838;28;20081;-75
2021/04/13 09:13:21;;;;;;;11.35;2.05;;;;;;;6.74;69.39;102939.72;5008651;28;20050;-76
2021/04/13 09:16:05;;;;;;;18.00;2.70;;;;;;;7.32;70.23;102928.34;4991050;28;20207;-73
2021/04/13 09:18:46;;;;;;;17.38;2.05;;;;;;;7.28;67.04;102928.59;5023919;28;20041;-78
2021/04/13 09:21:29;;;;;;;18.58;2.22;;;;;;;7.37;66.85;102925.56;4990396;28;20068;-76
2021/04/13 09:23:57;;;;;;;13.98;2.50;;;;;;;7.29;68.27;102914.59;4988008;28;20160;-77
2021/04/13 09:26:41;;;;;;;17.23;2.28;;;;;;;7.70;68.37;102915.22;5008694;28;20519;-77
2021/04/13 09:29:29;;;;;;;16.50;2.10;;;;;;;8.11;66.34;102927.19;5001965;28;20046;-77
2021/04/13 09:31:54;;;;;;;11.82;1.80;;;;;;;7.93;66.42;102921.97;5024318;28;20066;-77
2021/04/13 09:34:20;;;;;;;13.18;1.98;;;;;;;7.14;67.33;102929.22;5019899;28;20179;-77
2021/04/13 09:37:00;;;;;;;16.58;2.35;;;;;;;6.54;73.68;102924.91;5043678;28;20042;-78
2021/04/13 09:40:02;;;;;;;20.15;2.45;;;;;;;6.11;76.72;102929.34;5003156;28;20526;-76
2021/04/13 09:42:34;;;;;;;14.27;2.20;;;;;;;5.82;77.82;102927.88;5013936;28;20132;-76
2021/04/13 09:45:15;;;;;;;18.13;2.28;;;;;;;5.59;77.69;102921.84;5001608;28;20194;-78
2021/04/13 09:48:04;;;;;;;26.25;2.55;;;;;;;6.04;79.88;102915.72;4990672;28;20164;-77
2021/04/13 09:50:41;;;;;;;11.02;2.10;;;;;;;6.78;74.79;102912.56;5000026;28;20488;-77
2021/04/13 09:53:41;;;;;;;16.50;2.28;;;;;;;7.51;71.49;102914.44;5015832;28;20496;-76
2021/04/13 09:56:31;;;;;;;12.05;2.08;;;;;;;8.08;63.41;102914.25;4984150;28;20128;-78
2021/04/13 09:59:27;;;;;;;16.65;1.88;;;;;;;8.51;65.12;102905.13;4989927;28;20041;-76
2021/04/13 10:02:30;;;;;;;14.93;1.90;;;;;;;8.71;62.00;102904.06;5000698;28;20045;-76
2021/04/13 10:05:14;;;;;;;14.00;1.85;;;;;;;8.95;60.71;102896.66;5020900;28;20096;-78
2021/04/13 10:07:58;;;;;;;14.93;1.67;;;;;;;8.53;59.75;102905.03;5008977;28;20095;-77
2021/04/13 10:10:26;;;;;;;15.27;2.17;;;;;;;7.95;63.10;102901.81;5037419;28;20090;-76
2021/04/13 10:13:04;;;;;;;12.80;2.47;;;;;;;7.82;57.76;102905.97;5009108;28;20149;-77
2021/04/13 10:15:59;;;;;;;12.23;1.60;;;;;;;8.34;57.11;102892.91;5026750;28;20042;-79
2021/04/13 10:18:42;;;;;;;21.63;3.03;;;;;;;8.79;55.73;102892.34;4982198;28;20079;-76
2021/04/13 10:21:26;;;;;;;11.98;2.10;;;;;;;9.04;58.44;102887.47;5017331;28;20124;-79
2021/04/13 10:24:13;;;;;;;12.32;1.83;;;;;;;9.30;55.51;102879.94;4999718;28;20149;-78
2021/04/13 10:27:26;;;;;;;14.02;1.50;;;;;;;9.54;57.81;102880.34;5005236;28;20157;-77
2021/04/13 10:30:10;;;;;;;11.88;1.35;;;;;;;9.89;52.20;102886.19;4981012;28;20430;-76
2021/04/13 10:33:04;;;;;;;13.45;1.95;;;;;;;9.82;50.81;102878.75;5006172;28;20065;-75
2021/04/13 10:35:43;;;;;;;12.82;1.90;;;;;;;9.73;55.80;102893.22;4976861;28;20041;-77
2021/04/13 10:38:33;;;;;;;12.65;1.70;;;;;;;10.14;52.06;102890.81;4988138;28;20042;-78
2021/04/13 10:41:24;;;;;;;9.52;1.77;;;;;;;10.15;53.65;102896.88;5009423;28;20052;-77
2021/04/13 10:44:07;;;;;;;12.93;2.03;;;;;;;9.62;54.52;102901.69;5049584;28;20037;-80
2021/04/13 10:46:51;;;;;;;18.42;2.00;;;;;;;9.39;52.81;102897.75;5045363;28;20064;-79
2021/04/13 10:49:54;;;;;;;10.25;1.55;;;;;;;8.97;52.14;102893.97;5009371;28;20069;-78
2021/04/13 10:52:39;;;;;;;11.18;1.83;;;;;;;9.20;51.78;102904.97;5007996;28;20061;-80
2021/04/13 10:55:26;;;;;;;13.60;2.17;;;;;;;9.67;53.25;102893.59;5007137;28;20096;-76
2021/04/13 10:58:14;;;;;;;9.80;1.70;;;;;;;9.67;53.43;102893.59;4962692;28;20051;-77
2021/04/13 11:01:22;;;;;;;10.43;1.70;;;;;;;10.07;54.43;102894.72;4977493;28;20042;-80
2021/04/13 11:04:31;;;;;;;12.82;1.80;;;;;;;10.13;51.45;102897.00;5023563;28;20062;-78
2021/04/13 11:07:34;;;;;;;16.08;2.45;;;;;;;9.78;51.32;102890.34;4993251;28;20056;-78
2021/04/13 11:10:13;;;;;;;16.17;2.40;;;;;;;9.97;53.75;102884.88;4993675;28;20050;-79
2021/04/13 11:12:54;;;;;;;14.38;2.63;;;;;;;10.12;54.04;102882.19;4975177;28;20061;-75
2021/04/13 11:15:50;;;;;;;13.48;1.92;;;;;;;10.06;53.13;102881.72;5004661;28;20426;-78
2021/04/13 11:19:00;;;;;;;12.13;2.13;;;;;;;10.54;52.15;102877.09;5040860;28;20049;-77
2021/04/13 11:21:31;;;;;;;10.45;1.77;;;;;;;10.73;47.45;102878.59;5057609;28;20144;-77
2021/04/13 11:24:11;;;;;;;12.68;1.48;;;;;;;10.89;50.04;102861.78;5026537;28;20072;-77
2021/04/13 11:27:00;;;;;;;10.65;2.03;;;;;;;10.51;50.83;102898.28;5012583;28;20416;-77
2021/04/13 11:29:44;;;;;;;10.00;1.80;;;;;;;9.95;49.75;102882.34;4991610;28;20049;-75
2021/04/13 11:32:41;;;;;;;12.73;1.90;;;;;;;9.59;51.81;102873.06;5009246;28;20104;-76
2021/04/13 11:35:41;;;;;;;11.48;1.75;;;;;;;8.69;51.08;102879.75;5021139;28;20435;-77
2021/04/13 11:38:32;;;;;;;16.45;2.00;;;;;;;8.43;51.33;102875.06;4988572;28;20056;-80
2021/04/13 11:41:18;;;;;;;9.43;1.88;;;;;;;8.53;51.67;102878.88;4988955;28;20061;-79
2021/04/13 11:44:09;;;;;;;15.52;2.10;;;;;;;8.91;52.52;102871.59;4992312;28;20037;-78
2021/04/13 11:47:01;;;;;;;8.05;1.85;;;;;;;9.59;47.32;102877.44;5009437;28;20074;-77
2021/04/13 11:49:38;;;;;;;9.13;1.27;;;;;;;10.06;46.25;102873.84;4978780;28;20769;-76
2021/04/13 11:52:18;;;;;;;18.08;1.60;;;;;;;10.45;46.07;102865.41;4977432;28;20080;-78
2021/04/13 11:54:52;;;;;;;12.57;1.88;;;;;;;10.68;45.05;102873.59;4976855;28;20068;-78
2021/04/13 11:57:23;;;;;;;8.73;1.52;;;;;;;10.73;45.12;102861.06;5007739;28;20061;-74
2021/04/13 12:00:10;;;;;;;7.35;1.25;;;;;;;10.52;43.66;102874.56;5009072;28;20054;-78
2021/04/13 12:02:43;;;;;;;12.20;1.77;;;;;;;10.46;43.98;102868.88;5010074;28;20038;-79
2021/04/13 12:05:38;;;;;;;8.25;1.48;;;;;;;10.92;43.36;102871.25;4980614;28;20119;-76
2021/04/13 12:08:05;;;;;;;9.80;1.27;;;;;;;10.60;44.72;102870.63;5007589;28;20132;-79
2021/04/13 12:10:30;;;;;;;8.27;1.40;;;;;;;10.80;48.03;102883.38;4992092;28;20049;-78
2021/04/13 12:13:10;;;;;;;7.40;1.90;;;;;;;10.07;48.76;102884.22;4990438;28;20081;-79
2021/04/13 12:15:47;;;;;;;15.18;2.47;;;;;;;10.45;47.16;102885.53;4992107;28;20038;-79
2021/04/13 12:18:34;;;;;;;10.68;1.60;;;;;;;10.18;47.95;102886.22;5008316;28;20057;-79
2021/04/13 12:21:26;;;;;;;11.82;1.70;;;;;;;9.81;45.44;102896.25;5001927;28;20049;-76